Time;durP1;ratioP1;P1;durP2;ratioP2;P2;SDS_P1;SDS_P2;PMS_P1;PMS_P2;Temp;Humidity;BMP_temperature;BMP_pressure;BME280_temperature;BME280_humidity;BME280_pressure;Samples;Min_cycle;Max_cycle;Signal;HPM_P1;HPM_P2
2022/11/25 00:01:28;;;;;;;;;;;5.20;99.90;;;;;;5060646;22;20425;-71
2022/11/25 00:03:57;;;;;;;;;;;5.20;99.90;;;;;;5070598;28;19924;-71
2022/11/25 00:06:25;;;;;;;;;;;5.20;99.90;;;;;;5080945;28;20006;-71
2022/11/25 00:08:54;;;;;;;;;;;5.30;99.90;;;;;;5072589;28;20016;-71
2022/11/25 00:11:22;;;;;;;;;;;5.20;99.90;;;;;;5073240;28;20019;-71
2022/11/25 00:13:49;;;;;;;;;;;5.20;99.90;;;;;;5076707;28;19950;-71
2022/11/25 00:16:17;;;;;;;;;;;5.10;99.90;;;;;;5073813;28;19938;-71
2022/11/25 00:18:44;;;;;;;;;;;5.10;99.90;;;;;;5067414;28;19954;-71
2022/11/25 00:21:11;;;;;;;;;;;5.00;99.90;;;;;;5073563;28;19932;-71
2022/11/25 00:23:38;;;;;;;;;;;5.10;99.90;;;;;;5076636;28;20341;-72
2022/11/25 00:26:06;;;;;;;;;;;5.00;99.90;;;;;;5073415;28;21696;-71
2022/11/25 00:28:34;;;;;;;;;;;5.10;99.90;;;;;;5080202;28;19968;-71
2022/11/25 00:31:04;;;;;;;;;;;5.10;99.90;;;;;;5073095;28;19982;-71
2022/11/25 00:33:31;;;;;;;;;;;5.10;99.90;;;;;;5076232;28;19931;-71
2022/11/25 00:35:59;;;;;;;;;;;5.00;99.90;;;;;;5077576;28;19935;-71
2022/11/25 00:38:26;;;;;;;;;;;5.00;99.90;;;;;;5073549;28;21616;-71
2022/11/25 00:44:34;;;;;;;;;;;5.00;99.90;;;;;;5074360;28;20416;-71
2022/11/25 00:46:29;;;;;;;;;;;5.00;99.90;;;;;;5066052;28;19932;-70
2022/11/25 00:48:56;;;;;;;;;;;5.00;99.90;;;;;;5069064;28;19924;-71
2022/11/25 00:51:22;;;;;;;;;;;5.00;99.90;;;;;;5071007;28;19929;-70
2022/11/25 00:53:49;;;;;;;;;;;4.90;99.90;;;;;;5064702;28;20254;-71
2022/11/25 00:56:16;;;;;;;;;;;4.90;99.90;;;;;;5073646;28;20446;-71
2022/11/25 00:58:44;;;;;;;;;;;4.90;99.90;;;;;;5076278;28;19931;-71
2022/11/25 01:01:11;;;;;;;;;;;4.90;99.90;;;;;;5074731;28;19925;-71
2022/11/25 01:03:38;;;;;;;;;;;5.00;99.90;;;;;;5075421;28;20003;-71
2022/11/25 01:06:06;;;;;;;;;;;5.00;99.90;;;;;;5071049;28;19924;-72
2022/11/25 01:08:35;;;;;;;;;;;4.90;99.90;;;;;;5073716;28;19932;-71
2022/11/25 01:11:02;;;;;;;;;;;4.90;99.90;;;;;;5064018;28;19928;-71
2022/11/25 01:13:29;;;;;;;;;;;4.90;99.90;;;;;;5072408;28;19927;-71
2022/11/25 01:16:00;;;;;;;;;;;4.90;99.90;;;;;;5074682;28;20394;-71
2022/11/25 01:18:27;;;;;;;;;;;4.80;99.90;;;;;;5067309;28;19978;-71
2022/11/25 01:20:54;;;;;;;;;;;4.80;99.90;;;;;;5072621;28;19971;-71
2022/11/25 01:23:21;;;;;;;;;;;4.80;99.90;;;;;;5073238;28;19978;-71
2022/11/25 01:25:48;;;;;;;;;;;4.80;99.90;;;;;;5077533;28;19959;-70
2022/11/25 01:28:15;;;;;;;;;;;4.80;99.90;;;;;;5068391;28;20391;-71
2022/11/25 01:30:42;;;;;;;;;;;4.80;99.90;;;;;;5073283;28;19955;-71
2022/11/25 01:33:10;;;;;;;;;;;4.80;99.90;;;;;;5072955;28;20031;-71
2022/11/25 01:35:37;;;;;;;;;;;4.90;99.90;;;;;;5077059;28;19928;-71
2022/11/25 01:38:04;;;;;;;;;;;4.80;99.90;;;;;;5078810;28;20043;-71
2022/11/25 01:40:31;;;;;;;;;;;4.80;99.90;;;;;;5078627;28;20101;-71
2022/11/25 01:42:57;;;;;;;;;;;4.80;99.90;;;;;;5077324;28;19931;-71
2022/11/25 01:45:32;;;;;;;;;;;4.80;99.90;;;;;;5073454;28;19931;-70
2022/11/25 01:48:02;;;;;;;;;;;4.80;99.90;;;;;;5073079;28;20418;-71
2022/11/25 01:50:31;;;;;;;;;;;4.80;99.90;;;;;;5078311;28;19925;-71
2022/11/25 01:53:01;;;;;;;;;;;4.70;99.90;;;;;;5068631;28;19932;-71
2022/11/25 01:55:29;;;;;;;;;;;4.70;99.90;;;;;;5074076;28;19975;-71
2022/11/25 01:57:59;;;;;;;;;;;4.70;99.90;;;;;;5078486;28;19931;-71
2022/11/25 02:00:26;;;;;;;;;;;4.70;99.90;;;;;;5075434;28;19968;-71
2022/11/25 02:02:54;;;;;;;;;;;4.70;99.90;;;;;;5073710;28;20019;-71
2022/11/25 02:05:22;;;;;;;;;;;4.70;99.90;;;;;;5073671;28;20028;-71
2022/11/25 02:07:53;;;;;;;;;;;4.70;99.90;;;;;;5075048;28;20104;-71
2022/11/25 02:10:22;;;;;;;;;;;4.70;99.90;;;;;;5079460;28;19929;-70
2022/11/25 02:12:49;;;;;;;;;;;4.70;99.90;;;;;;5073604;28;20613;-71
2022/11/25 02:15:16;;;;;;;;;;;4.70;99.90;;;;;;5087697;28;19924;-71
2022/11/25 02:17:44;;;;;;;;;;;4.70;99.90;;;;;;5079385;28;20382;-71
2022/11/25 02:20:12;;;;;;;;;;;4.70;99.90;;;;;;5077213;28;20460;-70
2022/11/25 02:22:44;;;;;;;;;;;4.70;99.90;;;;;;5072223;28;19924;-71
2022/11/25 02:25:15;;;;;;;;;;;4.60;99.90;;;;;;5072741;28;19985;-71
2022/11/25 02:27:44;;;;;;;;;;;4.60;99.90;;;;;;5073554;28;20338;-71
2022/11/25 02:30:13;;;;;;;;;;;4.60;99.90;;;;;;5076468;28;19977;-71
2022/11/25 02:32:43;;;;;;;;;;;4.60;99.90;;;;;;5080931;28;20414;-71
2022/11/25 02:35:26;;;;;;;;;;;4.60;99.90;;;;;;5077048;28;19924;-71
2022/11/25 02:37:54;;;;;;;;;;;4.60;99.90;;;;;;5080788;28;19924;-71
2022/11/25 02:40:23;;;;;;;;;;;4.60;99.90;;;;;;5070470;28;19962;-71
2022/11/25 02:42:51;;;;;;;;;;;4.60;99.90;;;;;;5069954;28;19925;-71
2022/11/25 02:45:20;;;;;;;;;;;4.60;99.90;;;;;;5072298;28;20394;-71
2022/11/25 02:47:47;;;;;;;;;;;4.60;99.90;;;;;;5066973;28;20014;-71
2022/11/25 02:50:17;;;;;;;;;;;4.60;99.90;;;;;;5075102;28;20025;-71
2022/11/25 02:52:44;;;;;;;;;;;4.60;99.90;;;;;;5070353;28;19936;-71
2022/11/25 02:55:11;;;;;;;;;;;4.60;99.90;;;;;;5080361;28;19924;-71
2022/11/25 02:57:39;;;;;;;;;;;4.60;99.90;;;;;;5071666;28;19932;-71
2022/11/25 03:00:07;;;;;;;;;;;4.60;99.90;;;;;;5070293;28;19931;-71
2022/11/25 03:02:34;;;;;;;;;;;4.60;99.90;;;;;;5070886;28;19964;-71
2022/11/25 03:05:01;;;;;;;;;;;4.60;99.90;;;;;;5073419;28;19928;-70
2022/11/25 03:07:28;;;;;;;;;;;4.50;99.90;;;;;;5079908;28;19987;-71
2022/11/25 03:09:58;;;;;;;;;;;4.50;99.90;;;;;;5079335;28;20549;-71
2022/11/25 03:12:25;;;;;;;;;;;4.50;99.90;;;;;;5082869;28;20296;-71
2022/11/25 03:14:54;;;;;;;;;;;4.50;99.90;;;;;;5085583;28;20423;-70
2022/11/25 03:17:21;;;;;;;;;;;4.60;99.90;;;;;;5065631;28;19928;-71
2022/11/25 03:19:48;;;;;;;;;;;4.50;99.90;;;;;;5079212;28;19925;-71
2022/11/25 03:22:15;;;;;;;;;;;4.50;99.90;;;;;;5081200;28;19924;-71
2022/11/25 03:24:41;;;;;;;;;;;4.50;99.90;;;;;;5072266;28;19932;-71
2022/11/25 03:27:08;;;;;;;;;;;4.50;99.90;;;;;;5081930;28;19968;-70
2022/11/25 03:29:35;;;;;;;;;;;4.50;99.90;;;;;;5074088;28;19924;-71
2022/11/25 03:32:03;;;;;;;;;;;4.50;99.90;;;;;;5077926;28;20015;-72
2022/11/25 03:34:30;;;;;;;;;;;4.50;99.90;;;;;;5074448;28;20300;-71
2022/11/25 03:36:57;;;;;;;;;;;4.50;99.90;;;;;;5079745;28;19928;-71
2022/11/25 03:39:27;;;;;;;;;;;4.50;99.90;;;;;;5070765;28;19960;-71
2022/11/25 03:41:54;;;;;;;;;;;4.50;99.90;;;;;;5068572;28;19935;-71
2022/11/25 03:44:21;;;;;;;;;;;4.50;99.90;;;;;;5066800;28;19950;-71
2022/11/25 03:46:48;;;;;;;;;;;4.50;99.90;;;;;;5067128;28;19939;-71
2022/11/25 03:49:16;;;;;;;;;;;4.50;99.90;;;;;;5067768;28;19995;-71
2022/11/25 03:51:43;;;;;;;;;;;4.50;99.90;;;;;;5067562;28;19932;-71
2022/11/25 03:54:11;;;;;;;;;;;4.50;99.90;;;;;;5072554;28;19924;-71
2022/11/25 03:57:07;;;;;;;;;;;4.50;99.90;;;;;;5071154;28;20386;-71
2022/11/25 03:59:35;;;;;;;;;;;4.50;99.90;;;;;;5069250;28;19959;-70
2022/11/25 04:02:02;;;;;;;;;;;4.40;99.90;;;;;;5071105;28;20003;-70
2022/11/25 04:04:30;;;;;;;;;;;4.50;99.90;;;;;;5081931;28;19932;-71
2022/11/25 04:06:58;;;;;;;;;;;4.50;99.90;;;;;;5073174;28;20000;-71
2022/11/25 04:09:25;;;;;;;;;;;4.40;99.90;;;;;;5076525;28;19932;-70
2022/11/25 04:15:01;;;;;;;;;;;4.40;99.90;;;;;;5073834;28;19920;-71
2022/11/25 04:17:28;;;;;;;;;;;4.40;99.90;;;;;;5069181;28;20456;-71
2022/11/25 04:19:57;;;;;;;;;;;4.40;99.90;;;;;;5067917;28;19932;-71
2022/11/25 04:22:24;;;;;;;;;;;4.40;99.90;;;;;;5078458;28;19932;-71
2022/11/25 04:24:51;;;;;;;;;;;4.40;99.90;;;;;;5068954;28;19962;-71
2022/11/25 04:27:23;;;;;;;;;;;4.40;99.90;;;;;;5074738;28;19932;-70
2022/11/25 04:29:52;;;;;;;;;;;4.40;99.90;;;;;;5068041;28;19931;-71
2022/11/25 04:32:20;;;;;;;;;;;4.40;99.90;;;;;;5072438;28;19929;-71
2022/11/25 04:34:47;;;;;;;;;;;4.40;99.90;;;;;;5075077;28;19932;-71
2022/11/25 04:37:18;;;;;;;;;;;4.40;99.90;;;;;;5075624;28;19929;-71
2022/11/25 04:39:45;;;;;;;;;;;4.40;99.90;;;;;;5078372;28;19936;-70
2022/11/25 04:42:33;;;;;;;;;;;4.40;99.90;;;;;;5075436;28;20328;-71
2022/11/25 04:45:03;;;;;;;;;;;4.40;99.90;;;;;;5073364;28;19939;-71
2022/11/25 04:47:31;;;;;;;;;;;4.40;99.90;;;;;;5076048;28;19977;-70
2022/11/25 04:49:58;;;;;;;;;;;4.40;99.90;;;;;;5079207;28;20011;-71
2022/11/25 04:52:26;;;;;;;;;;;4.30;99.90;;;;;;5078295;28;19924;-71
2022/11/25 04:54:53;;;;;;;;;;;4.40;99.90;;;;;;5064177;28;19932;-70
2022/11/25 04:57:20;;;;;;;;;;;4.30;99.90;;;;;;5066033;28;19931;-71
2022/11/25 04:59:47;;;;;;;;;;;4.30;99.90;;;;;;5081166;28;19924;-70
2022/11/25 05:02:15;;;;;;;;;;;4.30;99.90;;;;;;5067576;28;20393;-71
2022/11/25 05:04:47;;;;;;;;;;;4.40;99.90;;;;;;5074993;28;19939;-71
2022/11/25 05:07:15;;;;;;;;;;;4.30;99.90;;;;;;5073224;28;20287;-71
2022/11/25 05:09:45;;;;;;;;;;;4.30;99.90;;;;;;5073631;28;19950;-71
2022/11/25 05:12:18;;;;;;;;;;;4.30;99.90;;;;;;5068845;28;19924;-71
2022/11/25 05:14:45;;;;;;;;;;;4.30;99.90;;;;;;5074377;28;19931;-72
2022/11/25 05:17:14;;;;;;;;;;;4.30;99.90;;;;;;5076577;28;19964;-71
2022/11/25 05:19:41;;;;;;;;;;;4.30;99.90;;;;;;5068430;28;20386;-71
2022/11/25 05:22:10;;;;;;;;;;;4.30;99.90;;;;;;5075197;28;19931;-71
2022/11/25 05:24:37;;;;;;;;;;;4.30;99.90;;;;;;5085223;28;19931;-71
2022/11/25 05:27:05;;;;;;;;;;;4.30;99.90;;;;;;5070878;28;19933;-71
2022/11/25 05:29:32;;;;;;;;;;;4.30;99.90;;;;;;5077194;28;20028;-71
2022/11/25 05:31:59;;;;;;;;;;;4.30;99.90;;;;;;5069466;28;19924;-71
2022/11/25 05:34:26;;;;;;;;;;;4.30;99.90;;;;;;5072028;28;20450;-71
2022/11/25 05:36:53;;;;;;;;;;;4.30;99.90;;;;;;5069611;28;19935;-71
2022/11/25 05:39:20;;;;;;;;;;;4.30;99.90;;;;;;5069779;28;19924;-77
2022/11/25 05:42:07;;;;;;;;;;;4.30;99.90;;;;;;5067708;28;20404;-72
2022/11/25 05:44:34;;;;;;;;;;;4.30;99.90;;;;;;5087478;28;19931;-71
2022/11/25 05:47:02;;;;;;;;;;;4.30;99.90;;;;;;5073605;28;20453;-79
2022/11/25 05:49:29;;;;;;;;;;;4.30;99.90;;;;;;5074191;28;19932;-71
2022/11/25 05:51:57;;;;;;;;;;;4.30;99.90;;;;;;5067405;28;19924;-71
2022/11/25 05:54:26;;;;;;;;;;;4.30;99.90;;;;;;5064764;28;19939;-71
2022/11/25 05:56:52;;;;;;;;;;;4.30;99.90;;;;;;5072477;28;19936;-73
2022/11/25 05:59:50;;;;;;;;;;;4.30;99.90;;;;;;5068959;28;20355;-73
2022/11/25 06:02:40;;;;;;;;;;;4.30;99.90;;;;;;5059802;28;20019;-71
2022/11/25 06:05:07;;;;;;;;;;;4.30;99.90;;;;;;5078930;28;19924;-73
2022/11/25 06:07:34;;;;;;;;;;;4.30;99.90;;;;;;5070988;28;19983;-72
2022/11/25 06:10:01;;;;;;;;;;;4.30;99.90;;;;;;5072663;28;20011;-71
2022/11/25 06:12:27;;;;;;;;;;;4.20;99.90;;;;;;5067510;28;20037;-72
2022/11/25 06:14:56;;;;;;;;;;;4.20;99.90;;;;;;5070490;28;19951;-71
2022/11/25 06:17:22;;;;;;;;;;;4.20;99.90;;;;;;5074015;28;20027;-71
2022/11/25 06:19:57;;;;;;;;;;;4.20;99.90;;;;;;5076598;28;19924;-71
2022/11/25 06:22:24;;;;;;;;;;;4.20;99.90;;;;;;5069267;28;19948;-72
2022/11/25 06:24:51;;;;;;;;;;;4.20;99.90;;;;;;5091734;22;19933;-70
2022/11/25 06:27:18;;;;;;;;;;;4.20;99.90;;;;;;5015523;28;20056;-70
2022/11/25 06:29:45;;;;;;;;;;;4.20;99.90;;;;;;5013043;28;19936;-70
2022/11/25 06:32:13;;;;;;;;;;;4.20;99.90;;;;;;5011599;28;20439;-71
2022/11/25 06:35:02;;;;;;;;;;;4.20;99.90;;;;;;5016530;28;19929;-70
2022/11/25 06:37:39;;;;;;;;;;;4.20;99.90;;;;;;5034944;28;19933;-70
2022/11/25 06:40:08;;;;;;;;;;;4.20;99.90;;;;;;5017285;28;20473;-70
2022/11/25 06:42:37;;;;;;;;;;;4.20;99.90;;;;;;5023821;28;19929;-70
2022/11/25 06:45:06;;;;;;;;;;;4.20;99.90;;;;;;5017847;28;20414;-70
2022/11/25 06:47:34;;;;;;;;;;;4.20;99.90;;;;;;5016451;28;19925;-70
2022/11/25 06:50:02;;;;;;;;;;;4.20;99.90;;;;;;5032292;28;20035;-70
2022/11/25 06:52:29;;;;;;;;;;;4.20;99.90;;;;;;5019080;28;19925;-70
2022/11/25 06:54:56;;;;;;;;;;;4.20;99.90;;;;;;5017546;28;19929;-70
2022/11/25 06:57:23;;;;;;;;;;;4.20;99.90;;;;;;5018572;28;19925;-70
2022/11/25 06:59:50;;;;;;;;;;;4.20;99.90;;;;;;5015871;28;19928;-70
2022/11/25 07:02:17;;;;;;;;;;;4.20;99.90;;;;;;5016157;28;20458;-70
2022/11/25 07:04:45;;;;;;;;;;;4.20;99.90;;;;;;4988966;28;20347;-69
2022/11/25 07:07:12;;;;;;;;;;;4.20;99.90;;;;;;5015576;28;20024;-70
2022/11/25 07:09:39;;;;;;;;;;;4.20;99.90;;;;;;5012167;28;19932;-70
2022/11/25 07:12:06;;;;;;;;;;;4.20;99.90;;;;;;5017101;28;20064;-69
2022/11/25 07:14:32;;;;;;;;;;;4.10;99.90;;;;;;5013514;28;20015;-69
2022/11/25 07:16:59;;;;;;;;;;;4.20;99.90;;;;;;5028390;28;19933;-70
2022/11/25 07:19:26;;;;;;;;;;;4.20;99.90;;;;;;5013877;28;19926;-69
2022/11/25 07:21:54;;;;;;;;;;;4.20;99.90;;;;;;5014833;28;19925;-70
2022/11/25 07:24:21;;;;;;;;;;;4.20;99.90;;;;;;5007039;28;20432;-70
2022/11/25 07:26:48;;;;;;;;;;;4.20;99.90;;;;;;5015535;28;19971;-70
2022/11/25 07:29:15;;;;;;;;;;;4.20;99.90;;;;;;5012804;28;19955;-70
2022/11/25 07:31:43;;;;;;;;;;;4.20;99.90;;;;;;5011797;28;21289;-70
2022/11/25 07:34:11;;;;;;;;;;;4.20;99.90;;;;;;5034913;28;19933;-70
2022/11/25 07:36:38;;;;;;;;;;;4.20;99.90;;;;;;5016144;28;19983;-70
2022/11/25 07:39:08;;;;;;;;;;;4.20;99.90;;;;;;5035226;28;19976;-70
2022/11/25 07:41:35;;;;;;;;;;;4.10;99.90;;;;;;5014949;28;19940;-70
2022/11/25 07:44:03;;;;;;;;;;;4.20;99.90;;;;;;5014397;28;20747;-70
2022/11/25 07:46:33;;;;;;;;;;;4.20;99.90;;;;;;5013703;28;20032;-70
2022/11/25 07:49:00;;;;;;;;;;;4.20;99.90;;;;;;5016441;28;20269;-69
2022/11/25 07:51:28;;;;;;;;;;;4.20;99.90;;;;;;5013304;28;20016;-70
2022/11/25 07:53:55;;;;;;;;;;;4.20;99.90;;;;;;5015353;28;20472;-70
2022/11/25 07:56:24;;;;;;;;;;;4.20;99.90;;;;;;5014070;28;19925;-70
2022/11/25 07:58:51;;;;;;;;;;;4.20;99.90;;;;;;5013166;28;19968;-70
2022/11/25 08:01:18;;;;;;;;;;;4.20;99.90;;;;;;5016783;28;19925;-69
2022/11/25 08:03:46;;;;;;;;;;;4.20;99.90;;;;;;5013703;28;20318;-70
2022/11/25 08:06:14;;;;;;;;;;;4.20;99.90;;;;;;5013679;28;19934;-70
2022/11/25 08:08:41;;;;;;;;;;;4.20;99.90;;;;;;5010566;28;19929;-70
2022/11/25 08:11:09;;;;;;;;;;;4.20;99.90;;;;;;5019665;28;20387;-70
2022/11/25 08:13:37;;;;;;;;;;;4.20;99.90;;;;;;5011408;28;19929;-70
2022/11/25 08:16:04;;;;;;;;;;;4.20;99.90;;;;;;5012066;28;19968;-70
2022/11/25 08:18:31;;;;;;;;;;;4.20;99.90;;;;;;5012027;28;20023;-69
2022/11/25 08:20:58;;;;;;;;;;;4.20;99.90;;;;;;5017606;28;19967;-70
2022/11/25 08:23:25;;;;;;;;;;;4.20;99.90;;;;;;5021376;28;19925;-70
2022/11/25 08:25:52;;;;;;;;;;;4.20;99.90;;;;;;5018344;28;19932;-70
2022/11/25 08:28:19;;;;;;;;;;;4.20;99.90;;;;;;5022194;28;19977;-69
2022/11/25 08:30:47;;;;;;;;;;;4.20;99.90;;;;;;5020011;28;19933;-70
2022/11/25 08:33:14;;;;;;;;;;;4.20;99.90;;;;;;5023074;28;20369;-70
2022/11/25 08:35:41;;;;;;;;;;;4.20;99.90;;;;;;5019669;28;19925;-70
2022/11/25 08:38:11;;;;;;;;;;;4.20;99.90;;;;;;5022781;28;20489;-69
2022/11/25 08:40:38;;;;;;;;;;;4.20;99.90;;;;;;5037548;28;19945;-69
2022/11/25 08:43:04;;;;;;;;;;;4.20;99.90;;;;;;5018907;28;19929;-69
2022/11/25 08:45:31;;;;;;;;;;;4.20;99.90;;;;;;5026260;28;20464;-69
2022/11/25 08:47:59;;;;;;;;;;;4.20;99.90;;;;;;5021039;28;19933;-69
2022/11/25 08:50:26;;;;;;;;;;;4.30;99.90;;;;;;5018651;28;20013;-70
2022/11/25 08:52:53;;;;;;;;;;;4.30;99.90;;;;;;5025083;28;19933;-69
2022/11/25 08:55:20;;;;;;;;;;;4.30;99.90;;;;;;5028506;28;19960;-70
2022/11/25 08:57:47;;;;;;;;;;;4.30;99.90;;;;;;5024313;28;19932;-69
2022/11/25 09:00:14;;;;;;;;;;;4.30;99.90;;;;;;5016677;28;19925;-69
2022/11/25 09:02:41;;;;;;;;;;;4.30;99.90;;;;;;5025017;28;20379;-69
2022/11/25 09:05:11;;;;;;;;;;;4.30;99.90;;;;;;5023135;28;19933;-69
2022/11/25 09:07:38;;;;;;;;;;;4.30;99.90;;;;;;5035120;28;20014;-69
2022/11/25 09:10:07;;;;;;;;;;;4.30;99.90;;;;;;5021691;28;19956;-69
2022/11/25 09:12:33;;;;;;;;;;;4.30;99.90;;;;;;5027264;28;19929;-70
2022/11/25 09:15:00;;;;;;;;;;;4.30;99.90;;;;;;5025657;28;19925;-70
2022/11/25 09:17:27;;;;;;;;;;;4.30;99.90;;;;;;5022043;28;20026;-69
2022/11/25 09:19:54;;;;;;;;;;;4.30;99.90;;;;;;5021861;28;19940;-70
2022/11/25 09:22:22;;;;;;;;;;;4.30;99.90;;;;;;5023780;28;20010;-69
2022/11/25 09:24:49;;;;;;;;;;;4.30;99.90;;;;;;5017823;28;20008;-70
2022/11/25 09:27:16;;;;;;;;;;;4.30;99.90;;;;;;5021123;28;19933;-70
2022/11/25 09:29:43;;;;;;;;;;;4.30;99.90;;;;;;5022840;28;19925;-70
2022/11/25 09:32:10;;;;;;;;;;;4.30;99.90;;;;;;5025428;28;19932;-70
2022/11/25 09:34:44;;;;;;;;;;;4.40;99.90;;;;;;5020753;28;19925;-69
2022/11/25 09:37:11;;;;;;;;;;;4.40;99.90;;;;;;5020524;28;19939;-69
2022/11/25 09:39:39;;;;;;;;;;;4.40;99.90;;;;;;5024482;28;19944;-69
2022/11/25 09:47:53;;;;;;;;;;;4.40;99.90;;;;;;5044010;28;19921;-69
2022/11/25 09:50:25;;;;;;;;;;;4.40;99.90;;;;;;5016553;28;20405;-69
2022/11/25 09:52:56;;;;;;;;;;;4.40;99.90;;;;;;5019241;28;19969;-69
2022/11/25 09:55:26;;;;;;;;;;;4.40;99.90;;;;;;5037143;28;19933;-69
2022/11/25 09:57:58;;;;;;;;;;;4.40;99.90;;;;;;5017065;28;19960;-72
2022/11/25 10:00:25;;;;;;;;;;;4.40;99.90;;;;;;5018162;28;19925;-70
2022/11/25 10:02:59;;;;;;;;;;;4.40;99.90;;;;;;5022813;28;19929;-70
2022/11/25 10:05:28;;;;;;;;;;;4.40;99.90;;;;;;5016666;28;20314;-70
2022/11/25 10:07:56;;;;;;;;;;;4.50;99.90;;;;;;5032293;28;19956;-75
2022/11/25 10:10:26;;;;;;;;;;;4.50;99.90;;;;;;5024840;28;20024;-70
2022/11/25 10:12:54;;;;;;;;;;;4.50;99.90;;;;;;5022905;28;20024;-70
2022/11/25 10:15:24;;;;;;;;;;;4.50;99.90;;;;;;5020108;28;20012;-71
2022/11/25 10:17:53;;;;;;;;;;;4.50;99.90;;;;;;5033378;28;19940;-69
2022/11/25 10:20:21;;;;;;;;;;;4.50;99.90;;;;;;5021605;28;19937;-70
2022/11/25 10:22:50;;;;;;;;;;;4.50;99.90;;;;;;5023025;28;19968;-69
2022/11/25 10:25:19;;;;;;;;;;;4.50;99.90;;;;;;5022498;28;19941;-69
2022/11/25 10:27:50;;;;;;;;;;;4.50;99.90;;;;;;5021632;28;19929;-69
2022/11/25 10:30:19;;;;;;;;;;;4.50;99.90;;;;;;5022603;28;20022;-69
2022/11/25 10:32:49;;;;;;;;;;;4.50;99.90;;;;;;5025043;28;19929;-70
2022/11/25 10:35:23;;;;;;;;;;;4.50;99.90;;;;;;5020776;28;20415;-69
2022/11/25 10:37:53;;;;;;;;;;;4.60;99.90;;;;;;5011797;28;19929;-69
2022/11/25 10:40:21;;;;;;;;;;;4.60;99.90;;;;;;5023469;28;19925;-69
2022/11/25 10:42:49;;;;;;;;;;;4.60;99.90;;;;;;5015054;28;20023;-69
2022/11/25 10:45:16;;;;;;;;;;;4.60;99.90;;;;;;5022892;28;19936;-69
2022/11/25 10:47:52;;;;;;;;;;;4.60;99.90;;;;;;5022802;28;20027;-69
2022/11/25 10:50:22;;;;;;;;;;;4.60;99.90;;;;;;5024323;28;19931;-70
2022/11/25 10:52:53;;;;;;;;;;;4.60;99.90;;;;;;5022341;28;19975;-69
2022/11/25 10:55:23;;;;;;;;;;;4.60;99.90;;;;;;5012892;28;19932;-69
2022/11/25 10:57:51;;;;;;;;;;;4.70;99.90;;;;;;5023598;28;19941;-70
2022/11/25 11:00:25;;;;;;;;;;;4.70;99.90;;;;;;5018282;28;19935;-69
2022/11/25 11:02:53;;;;;;;;;;;4.70;99.90;;;;;;5018832;28;20018;-69
2022/11/25 11:05:23;;;;;;;;;;;4.70;99.90;;;;;;5023548;28;20449;-69
2022/11/25 11:08:06;;;;;;;;;;;4.70;99.90;;;;;;5020158;28;19979;-69
2022/11/25 11:10:35;;;;;;;;;;;4.80;99.90;;;;;;5014666;28;19926;-69
2022/11/25 11:13:04;;;;;;;;;;;4.80;99.90;;;;;;5025908;28;19933;-69
2022/11/25 11:15:32;;;;;;;;;;;4.80;99.90;;;;;;5019481;28;19983;-69
2022/11/25 11:17:59;;;;;;;;;;;4.80;99.90;;;;;;5021017;28;19926;-69
2022/11/25 11:20:27;;;;;;;;;;;4.90;99.90;;;;;;5015555;28;19956;-70
2022/11/25 11:23:00;;;;;;;;;;;4.90;99.90;;;;;;5023223;28;19931;-70
2022/11/25 11:25:29;;;;;;;;;;;4.90;99.90;;;;;;5010699;28;19944;-74
2022/11/25 11:27:56;;;;;;;;;;;4.90;99.90;;;;;;5019685;28;19933;-69
2022/11/25 11:30:25;;;;;;;;;;;4.90;99.90;;;;;;5018805;28;20610;-68
2022/11/25 11:33:00;;;;;;;;;;;5.00;99.90;;;;;;5034776;28;19987;-70
2022/11/25 11:35:30;;;;;;;;;;;5.00;99.90;;;;;;5022246;28;19925;-69
2022/11/25 11:37:59;;;;;;;;;;;5.00;99.90;;;;;;5021908;28;20024;-70
2022/11/25 11:40:29;;;;;;;;;;;5.00;99.90;;;;;;5023183;28;19969;-70
2022/11/25 11:43:03;;;;;;;;;;;5.00;99.90;;;;;;5016977;28;19968;-70
2022/11/25 11:45:37;;;;;;;;;;;5.00;99.90;;;;;;5017807;28;19952;-70
2022/11/25 11:48:14;;;;;;;;;;;5.10;99.90;;;;;;5025157;28;19980;-71
2022/11/25 11:50:42;;;;;;;;;;;5.10;99.90;;;;;;5020267;28;19933;-70
2022/11/25 11:53:18;;;;;;;;;;;5.10;99.90;;;;;;5021062;28;19947;-70
2022/11/25 11:55:53;;;;;;;;;;;5.10;99.90;;;;;;5020549;28;19969;-71
2022/11/25 11:58:26;;;;;;;;;;;5.10;99.90;;;;;;5021300;28;20446;-70
2022/11/25 12:01:01;;;;;;;;;;;5.20;99.90;;;;;;5018700;28;19925;-70
2022/11/25 12:03:29;;;;;;;;;;;5.20;99.90;;;;;;5016822;28;19988;-70
2022/11/25 12:05:57;;;;;;;;;;;5.20;99.90;;;;;;5021360;28;20015;-69
2022/11/25 12:08:27;;;;;;;;;;;5.20;99.90;;;;;;5019493;28;20306;-69
2022/11/25 12:10:56;;;;;;;;;;;5.20;99.90;;;;;;5023500;28;19959;-69
2022/11/25 12:13:27;;;;;;;;;;;5.20;99.90;;;;;;5020326;28;19932;-69
2022/11/25 12:15:57;;;;;;;;;;;5.20;99.90;;;;;;5020061;28;19934;-69
2022/11/25 12:18:38;;;;;;;;;;;5.30;99.90;;;;;;5023167;28;19995;-69
2022/11/25 12:21:06;;;;;;;;;;;5.30;99.90;;;;;;5020115;28;20027;-69
2022/11/25 12:23:39;;;;;;;;;;;5.30;99.90;;;;;;5020221;28;19971;-69
2022/11/25 12:26:09;;;;;;;;;;;5.30;99.90;;;;;;5014038;28;20691;-69
2022/11/25 12:28:38;;;;;;;;;;;5.40;99.90;;;;;;5021409;28;19937;-69
2022/11/25 12:31:13;;;;;;;;;;;5.40;99.90;;;;;;5017295;28;19957;-69
2022/11/25 12:33:43;;;;;;;;;;;5.40;99.90;;;;;;5023673;28;19933;-69
2022/11/25 12:36:12;;;;;;;;;;;5.40;99.90;;;;;;5021188;28;19943;-68
2022/11/25 12:38:42;;;;;;;;;;;5.40;99.90;;;;;;5016897;28;20007;-69
2022/11/25 12:41:16;;;;;;;;;;;5.40;99.90;;;;;;5020152;28;19936;-68
2022/11/25 12:43:45;;;;;;;;;;;5.40;99.90;;;;;;5021329;28;20457;-68
2022/11/25 12:46:18;;;;;;;;;;;5.50;99.90;;;;;;5019335;28;19932;-69
2022/11/25 12:48:45;;;;;;;;;;;5.50;99.90;;;;;;5024678;28;19929;-69
2022/11/25 12:51:18;;;;;;;;;;;5.50;99.90;;;;;;5024744;28;20020;-69
2022/11/25 12:53:50;;;;;;;;;;;5.50;99.90;;;;;;5015191;28;19968;-68
2022/11/25 12:56:19;;;;;;;;;;;5.50;99.90;;;;;;5012654;28;19932;-68
2022/11/25 12:58:53;;;;;;;;;;;5.50;99.90;;;;;;5018737;28;19933;-69
2022/11/25 13:01:33;;;;;;;;;;;5.60;99.90;;;;;;5021678;28;19925;-69
2022/11/25 13:04:21;;;;;;;;;;;5.60;99.90;;;;;;5021902;28;19937;-68
2022/11/25 13:07:05;;;;;;;;;;;5.60;99.90;;;;;;5017238;28;19972;-68
2022/11/25 13:09:56;;;;;;;;;;;5.60;99.90;;;;;;5034877;28;19925;-68
2022/11/25 13:12:30;;;;;;;;;;;5.60;99.90;;;;;;4996812;28;20023;-68
2022/11/25 13:15:06;;;;;;;;;;;5.70;99.90;;;;;;5015746;28;20532;-69
2022/11/25 13:17:38;;;;;;;;;;;5.70;99.90;;;;;;5018926;28;19929;-68
2022/11/25 13:20:24;;;;;;;;;;;5.70;99.90;;;;;;5021579;28;20737;-67
2022/11/25 13:23:00;;;;;;;;;;;5.70;99.90;;;;;;5016461;28;19978;-67
2022/11/25 13:25:28;;;;;;;;;;;5.70;99.90;;;;;;5019811;28;19987;-68
2022/11/25 13:30:37;;;;;;;;;;;5.80;99.90;;;;;;5001143;28;20022;-69
2022/11/25 13:33:19;;;;;;;;;;;5.80;99.90;;;;;;5024358;28;19933;-69
2022/11/25 13:35:54;;;;;;;;;;;5.80;99.90;;;;;;5007033;28;19964;-69
2022/11/25 13:38:47;;;;;;;;;;;5.80;99.90;;;;;;5017599;28;20028;-69
2022/11/25 13:41:21;;;;;;;;;;;5.80;99.90;;;;;;5017188;28;19933;-68
2022/11/25 13:43:55;;;;;;;;;;;5.80;99.90;;;;;;5021215;28;20385;-69
2022/11/25 13:46:27;;;;;;;;;;;5.90;99.90;;;;;;4998012;28;20022;-69
2022/11/25 13:48:55;;;;;;;;;;;5.90;99.90;;;;;;4996068;28;20063;-69
2022/11/25 13:51:25;;;;;;;;;;;5.90;99.90;;;;;;5011420;28;19928;-69
2022/11/25 13:53:53;;;;;;;;;;;5.90;99.90;;;;;;5013488;28;20020;-69
2022/11/25 13:56:26;;;;;;;;;;;5.90;99.90;;;;;;5010874;28;20024;-69
2022/11/25 13:59:12;;;;;;;;;;;5.90;99.90;;;;;;5008689;28;20024;-70
2022/11/25 14:01:40;;;;;;;;;;;5.90;99.90;;;;;;4999042;28;19952;-69
2022/11/25 14:04:07;;;;;;;;;;;5.90;99.90;;;;;;4995272;28;19939;-75
2022/11/25 14:06:49;;;;;;;;;;;6.00;99.90;;;;;;4999521;28;19925;-70
2022/11/25 14:09:22;;;;;;;;;;;6.00;99.90;;;;;;5008848;28;19944;-69
2022/11/25 14:12:12;;;;;;;;;;;6.00;99.90;;;;;;5013107;28;19929;-75
2022/11/25 14:14:48;;;;;;;;;;;6.00;99.90;;;;;;5012936;28;19933;-70
2022/11/25 14:17:24;;;;;;;;;;;6.00;99.90;;;;;;5020922;28;19933;-70
2022/11/25 14:20:03;;;;;;;;;;;6.00;99.90;;;;;;5019544;28;20387;-70
2022/11/25 14:22:41;;;;;;;;;;;6.00;99.90;;;;;;5012522;28;19929;-69
2022/11/25 14:25:14;;;;;;;;;;;6.10;99.90;;;;;;5014352;28;19972;-70
2022/11/25 14:27:45;;;;;;;;;;;6.10;99.90;;;;;;5016630;28;19931;-69
2022/11/25 14:30:13;;;;;;;;;;;6.10;99.90;;;;;;5003352;28;20008;-70
2022/11/25 14:32:42;;;;;;;;;;;6.10;99.90;;;;;;5010073;28;19925;-70
2022/11/25 14:35:14;;;;;;;;;;;6.10;99.90;;;;;;5016235;28;19979;-70
2022/11/25 14:37:44;;;;;;;;;;;6.10;99.90;;;;;;5011925;28;19956;-75
2022/11/25 14:40:14;;;;;;;;;;;6.10;99.90;;;;;;4999208;28;20063;-69
2022/11/25 14:42:43;;;;;;;;;;;6.20;99.90;;;;;;5015168;28;19929;-69
2022/11/25 14:45:19;;;;;;;;;;;6.20;99.90;;;;;;5013942;28;20066;-74
2022/11/25 14:47:46;;;;;;;;;;;6.20;99.90;;;;;;4994649;28;19928;-70
2022/11/25 14:50:14;;;;;;;;;;;6.20;99.90;;;;;;5007719;28;19929;-76
2022/11/25 14:52:43;;;;;;;;;;;6.20;99.90;;;;;;5013177;28;19925;-71
2022/11/25 14:55:10;;;;;;;;;;;6.20;99.90;;;;;;5013851;28;19935;-72
2022/11/25 14:57:40;;;;;;;;;;;6.20;99.90;;;;;;5015618;28;19965;-77
2022/11/25 15:00:09;;;;;;;;;;;6.30;99.90;;;;;;5011802;28;22164;-70